createdAt,value
2019-02-14T00:00:08.695Z,5.42
2019-02-14T00:02:37.362Z,5.49
2019-02-14T00:05:06.317Z,5.45
2019-02-14T00:07:35.047Z,5.43
2019-02-14T00:10:04.632Z,5.35
2019-02-14T00:12:33.883Z,5.30
2019-02-14T00:15:02.577Z,5.28
2019-02-14T00:17:31.217Z,5.33
2019-02-14T00:19:59.759Z,5.31
2019-02-14T00:22:28.290Z,5.24
2019-02-14T00:24:56.848Z,5.23
2019-02-14T00:27:25.457Z,5.29
2019-02-14T00:29:53.931Z,5.32
2019-02-14T00:32:22.511Z,5.30
2019-02-14T00:34:51.071Z,5.33
2019-02-14T00:37:19.579Z,5.29
2019-02-14T00:39:48.062Z,5.22
2019-02-14T00:42:16.576Z,5.16
2019-02-14T00:44:45.278Z,5.14
2019-02-14T00:47:13.893Z,5.09
2019-02-14T00:49:42.496Z,5.02
2019-02-14T00:52:11.065Z,4.92
2019-02-14T00:54:39.550Z,4.86
2019-02-14T00:57:08.095Z,4.84
2019-02-14T00:59:36.636Z,4.77
2019-02-14T01:02:05.226Z,4.62
2019-02-14T01:04:33.766Z,4.50
2019-02-14T01:07:02.459Z,4.48
2019-02-14T01:09:31.099Z,4.59
2019-02-14T01:11:59.647Z,4.53
2019-02-14T01:14:28.226Z,4.39
2019-02-14T01:16:56.778Z,4.28
2019-02-14T01:19:25.346Z,4.16
2019-02-14T01:21:53.954Z,4.19
2019-02-14T01:24:22.491Z,4.24
2019-02-14T01:26:51.124Z,4.31
2019-02-14T01:29:19.682Z,4.34
2019-02-14T01:31:48.258Z,4.31
2019-02-14T01:34:16.816Z,4.23
2019-02-14T01:36:45.356Z,4.09
2019-02-14T01:39:14.020Z,3.92
2019-02-14T01:41:42.535Z,3.75
2019-02-14T01:44:11.144Z,3.59
2019-02-14T01:46:39.660Z,3.54
2019-02-14T01:49:08.272Z,3.53
2019-02-14T01:51:36.853Z,3.48
2019-02-14T01:54:05.448Z,3.48
2019-02-14T01:56:33.997Z,3.39
2019-02-14T01:59:04.957Z,3.28
2019-02-14T02:01:33.525Z,3.30
2019-02-14T02:04:02.049Z,3.33
2019-02-14T02:06:30.615Z,3.33
2019-02-14T02:08:59.227Z,3.36
2019-02-14T02:11:27.761Z,3.29
2019-02-14T02:13:56.460Z,3.16
2019-02-14T02:16:24.917Z,3.12
2019-02-14T02:18:53.505Z,3.19
2019-02-14T02:21:22.136Z,3.25
2019-02-14T02:23:50.644Z,3.27
2019-02-14T02:26:19.259Z,3.21
2019-02-14T02:28:47.832Z,3.22
2019-02-14T02:31:16.449Z,3.17
2019-02-14T02:33:45.088Z,3.10
2019-02-14T02:36:13.746Z,3.11
2019-02-14T02:38:42.233Z,3.09
2019-02-14T02:41:10.737Z,3.07
2019-02-14T02:43:39.302Z,3.08
2019-02-14T02:46:07.814Z,3.11
2019-02-14T02:48:36.432Z,3.18
2019-02-14T02:51:05.064Z,3.18
2019-02-14T02:53:33.649Z,3.12
2019-02-14T02:56:02.289Z,3.04
2019-02-14T02:58:30.878Z,3.07
2019-02-14T03:00:59.497Z,3.09
2019-02-14T03:03:28.069Z,3.09
2019-02-14T03:05:56.623Z,3.21
2019-02-14T03:08:25.219Z,3.27
2019-02-14T03:10:54.232Z,3.37
2019-02-14T03:13:22.696Z,3.40
2019-02-14T03:15:51.195Z,3.48
2019-02-14T03:18:19.861Z,3.58
2019-02-14T03:20:48.545Z,3.63
2019-02-14T03:23:17.150Z,3.72
2019-02-14T03:25:45.763Z,3.87
2019-02-14T03:28:14.450Z,3.99
2019-02-14T03:30:43.250Z,4.00
2019-02-14T03:33:11.779Z,4.02
2019-02-14T03:35:40.317Z,4.00
2019-02-14T03:38:08.825Z,4.02
2019-02-14T03:40:37.480Z,4.00
2019-02-14T03:43:07.530Z,3.95
2019-02-14T03:45:36.035Z,4.00
2019-02-14T03:48:04.632Z,3.95
2019-02-14T03:50:33.150Z,3.87
2019-02-14T03:53:01.737Z,3.84
2019-02-14T03:55:30.214Z,3.83
2019-02-14T03:57:58.763Z,3.89
2019-02-14T04:00:27.276Z,3.94
2019-02-14T04:02:55.825Z,4.03
2019-02-14T04:05:24.401Z,4.05
2019-02-14T04:07:52.968Z,4.17
2019-02-14T04:10:21.519Z,4.23
2019-02-14T04:12:50.067Z,4.25
2019-02-14T04:15:19.126Z,4.23
2019-02-14T04:17:47.676Z,4.25
2019-02-14T04:20:16.109Z,4.25
2019-02-14T04:22:44.651Z,4.24
2019-02-14T04:25:13.225Z,4.31
2019-02-14T04:27:41.772Z,4.22
2019-02-14T04:30:12.252Z,4.02
2019-02-14T04:32:40.826Z,3.74
2019-02-14T04:35:09.451Z,3.55
2019-02-14T04:37:37.983Z,3.41
2019-02-14T04:40:15.598Z,3.26
2019-02-14T04:42:44.030Z,3.17
2019-02-14T04:45:13.758Z,3.06
2019-02-14T04:47:42.812Z,2.92
2019-02-14T04:50:12.119Z,2.94
2019-02-14T04:52:40.712Z,3.06
2019-02-14T04:55:12.359Z,3.16
2019-02-14T04:57:40.972Z,3.27
2019-02-14T05:00:12.464Z,3.31
2019-02-14T05:02:41.081Z,3.29
2019-02-14T05:05:10.281Z,3.19
2019-02-14T05:07:38.896Z,3.14
2019-02-14T05:10:09.399Z,3.29
2019-02-14T05:12:38.031Z,3.38
2019-02-14T05:15:08.383Z,3.38
2019-02-14T05:17:37.069Z,3.41
2019-02-14T05:20:11.183Z,3.54
2019-02-14T05:22:39.791Z,3.59
2019-02-14T05:25:09.321Z,3.50
2019-02-14T05:27:37.886Z,3.29
2019-02-14T05:30:15.025Z,3.14
2019-02-14T05:32:43.479Z,3.04
2019-02-14T05:35:12.129Z,2.99
2019-02-14T05:37:40.567Z,2.97
2019-02-14T05:40:10.656Z,2.95
2019-02-14T05:42:39.453Z,2.95
2019-02-14T05:45:13.280Z,2.99
2019-02-14T05:47:41.906Z,2.96
2019-02-14T05:50:12.941Z,2.95
2019-02-14T05:52:41.615Z,2.85
2019-02-14T05:55:11.700Z,2.75
2019-02-14T05:57:41.425Z,2.73
2019-02-14T06:00:18.740Z,2.68
2019-02-14T06:02:47.396Z,2.67
2019-02-14T06:05:16.061Z,2.70
2019-02-14T06:07:44.597Z,2.67
2019-02-14T06:10:13.291Z,2.51
2019-02-14T06:12:41.894Z,2.09
2019-02-14T06:15:11.836Z,1.55
2019-02-14T06:17:40.436Z,1.17
2019-02-14T06:20:10.559Z,1.02
2019-02-14T06:22:39.193Z,1.18
2019-02-14T06:25:09.373Z,1.40
2019-02-14T06:27:37.906Z,1.79
2019-02-14T06:30:09.289Z,2.29
2019-02-14T06:32:37.879Z,2.55
2019-02-14T06:35:07.854Z,2.77
2019-02-14T06:37:36.381Z,2.94
2019-02-14T06:40:07.819Z,2.81
2019-02-14T06:42:36.415Z,2.81
2019-02-14T06:45:07.608Z,2.66
2019-02-14T06:47:36.224Z,2.03
2019-02-14T06:50:05.829Z,1.36
2019-02-14T06:52:34.423Z,0.78
2019-02-14T06:55:03.050Z,0.75
2019-02-14T06:57:31.650Z,0.96
2019-02-14T07:00:00.568Z,1.23
2019-02-14T07:02:29.160Z,1.69
2019-02-14T07:04:57.695Z,2.16
2019-02-14T07:07:26.225Z,2.53
2019-02-14T07:09:54.733Z,2.82
2019-02-14T07:12:23.345Z,3.06
2019-02-14T07:14:51.926Z,3.02
2019-02-14T07:17:20.495Z,2.79
2019-02-14T07:19:49.007Z,2.84
2019-02-14T07:22:17.632Z,2.47
2019-02-14T07:24:46.115Z,1.73
2019-02-14T07:27:14.641Z,1.23
2019-02-14T07:29:43.178Z,1.14
2019-02-14T07:32:11.791Z,1.36
2019-02-14T07:34:40.247Z,1.41
2019-02-14T07:37:08.862Z,1.81
2019-02-14T07:39:37.404Z,2.34
2019-02-14T07:42:06.005Z,2.81
2019-02-14T07:44:34.535Z,3.06
2019-02-14T07:47:03.096Z,3.17
2019-02-14T07:49:31.611Z,3.27
2019-02-14T07:52:00.151Z,3.07
2019-02-14T07:54:28.601Z,3.16
2019-02-14T07:56:57.228Z,2.84
2019-02-14T07:59:25.730Z,2.17
2019-02-14T08:01:54.269Z,1.82
2019-02-14T08:04:22.742Z,1.85
2019-02-14T08:06:51.774Z,2.23
2019-02-14T08:09:20.337Z,2.79
2019-02-14T08:11:48.906Z,3.40
2019-02-14T08:14:17.488Z,3.86
2019-02-14T08:16:46.172Z,4.36
2019-02-14T08:19:14.598Z,4.56
2019-02-14T08:21:43.114Z,4.72
2019-02-14T08:24:11.670Z,4.98
2019-02-14T08:26:40.224Z,5.19
2019-02-14T08:29:12.737Z,5.56
2019-02-14T08:31:41.237Z,5.78
2019-02-14T08:34:09.722Z,5.69
2019-02-14T08:36:38.260Z,5.69
2019-02-14T08:39:06.848Z,5.80
2019-02-14T08:41:35.479Z,5.95
2019-02-14T08:44:04.045Z,6.10
2019-02-14T08:46:32.630Z,5.96
2019-02-14T08:49:01.139Z,6.09
2019-02-14T08:51:29.753Z,6.39
2019-02-14T08:53:58.344Z,6.73
2019-02-14T08:56:28.404Z,6.86
2019-02-14T08:58:56.918Z,6.98
2019-02-14T09:01:25.519Z,6.95
2019-02-14T09:03:54.193Z,6.94
2019-02-14T09:06:22.732Z,6.90
2019-02-14T09:08:51.245Z,6.70
2019-02-14T09:11:19.789Z,6.58
2019-02-14T09:13:48.270Z,6.52
2019-02-14T09:16:16.879Z,6.35
2019-02-14T09:18:45.509Z,6.23
2019-02-14T09:21:14.079Z,6.19
2019-02-14T09:23:42.684Z,6.48
2019-02-14T09:26:11.358Z,6.98
2019-02-14T09:28:39.982Z,7.42
2019-02-14T09:31:08.603Z,7.89
2019-02-14T09:33:37.173Z,8.23
2019-02-14T09:36:05.794Z,8.61
2019-02-14T09:38:34.347Z,8.98
2019-02-14T09:41:02.872Z,9.18
2019-02-14T09:43:31.502Z,9.01
2019-02-14T09:46:00.079Z,8.76
2019-02-14T09:48:28.602Z,8.57
2019-02-14T09:50:57.211Z,8.47
2019-02-14T09:53:25.805Z,8.36
2019-02-14T09:55:54.366Z,8.34
2019-02-14T09:58:22.962Z,8.31
2019-02-14T10:00:51.465Z,8.61
2019-02-14T10:03:20.014Z,8.89
2019-02-14T10:05:48.599Z,9.05
2019-02-14T10:08:17.141Z,9.31
2019-02-14T10:10:45.654Z,9.58
2019-02-14T10:13:14.238Z,10.16
2019-02-14T10:15:42.827Z,10.69
2019-02-14T10:18:11.274Z,10.80
2019-02-14T10:20:39.804Z,10.91
2019-02-14T10:23:08.334Z,11.10
2019-02-14T10:25:37.045Z,11.31
2019-02-14T10:28:05.699Z,11.45
2019-02-14T10:30:34.326Z,11.53
2019-02-14T10:33:02.903Z,11.58
2019-02-14T10:35:31.538Z,11.48
2019-02-14T10:38:00.065Z,11.43
2019-02-14T10:40:28.632Z,11.61
2019-02-14T10:42:57.225Z,11.62
2019-02-14T10:45:25.819Z,11.83
2019-02-14T10:47:54.357Z,11.95
2019-02-14T10:50:22.959Z,12.23
2019-02-14T10:52:51.508Z,12.39
2019-02-14T10:55:20.143Z,12.42
2019-02-14T10:57:48.742Z,12.58
2019-02-14T11:00:25.350Z,12.85
2019-02-14T11:02:53.993Z,13.04
2019-02-14T11:05:22.609Z,13.18
2019-02-14T11:07:51.191Z,13.10
2019-02-14T11:10:19.843Z,13.11
2019-02-14T11:12:48.431Z,13.29
2019-02-14T11:15:21.781Z,13.37
2019-02-14T11:17:50.408Z,13.47
2019-02-14T11:20:19.087Z,13.69
2019-02-14T11:22:48.933Z,13.66
2019-02-14T11:25:20.832Z,13.74
2019-02-14T11:27:49.472Z,13.95
2019-02-14T11:30:18.100Z,13.86
2019-02-14T11:32:46.677Z,13.78
2019-02-14T11:35:15.292Z,13.66
2019-02-14T11:37:44.016Z,13.78
2019-02-14T11:40:15.519Z,13.88
2019-02-14T11:42:44.113Z,13.95
2019-02-14T11:45:18.047Z,14.03
2019-02-14T11:47:46.668Z,14.02
2019-02-14T11:50:15.259Z,13.88
2019-02-14T11:52:43.815Z,13.78
2019-02-14T11:55:12.612Z,13.78
2019-02-14T11:57:41.237Z,13.92
2019-02-14T12:00:17.097Z,14.14
2019-02-14T12:02:54.713Z,14.26
2019-02-14T12:05:16.112Z,14.12
2019-02-14T12:07:44.662Z,13.86
2019-02-14T12:10:14.004Z,13.61
2019-02-14T12:12:42.618Z,13.61
2019-02-14T12:15:12.632Z,13.51
2019-02-14T12:17:41.263Z,13.60
2019-02-14T12:20:14.750Z,13.72
2019-02-14T12:22:46.875Z,13.59
2019-02-14T12:25:18.582Z,13.48
2019-02-14T12:27:47.133Z,13.42
2019-02-14T12:30:16.520Z,13.42
2019-02-14T12:32:45.059Z,13.59
2019-02-14T12:35:13.569Z,13.82
2019-02-14T12:37:42.176Z,14.14
2019-02-14T12:40:13.178Z,14.32
2019-02-14T12:42:41.808Z,14.40
2019-02-14T12:45:20.219Z,14.36
2019-02-14T12:47:43.174Z,14.26
2019-02-14T12:50:11.789Z,14.25
2019-02-14T12:52:41.372Z,14.22
2019-02-14T12:55:09.990Z,14.12
2019-02-14T12:57:38.569Z,14.14
2019-02-14T13:00:15.815Z,14.03
2019-02-14T13:02:44.408Z,14.11
2019-02-14T13:05:13.191Z,13.98
2019-02-14T13:07:41.786Z,13.83
2019-02-14T13:10:12.537Z,13.80
2019-02-14T13:12:41.128Z,13.68
2019-02-14T13:15:18.244Z,13.67
2019-02-14T13:17:49.687Z,13.63
2019-02-14T13:20:18.714Z,13.63
2019-02-14T13:22:47.334Z,13.83
2019-02-14T13:25:16.032Z,13.91
2019-02-14T13:27:44.743Z,14.03
2019-02-14T13:30:18.743Z,14.20
2019-02-14T13:32:47.421Z,14.31
2019-02-14T13:35:16.016Z,14.45
2019-02-14T13:37:44.648Z,14.57
2019-02-14T13:40:13.377Z,14.53
2019-02-14T13:42:42.000Z,14.58
2019-02-14T13:45:13.346Z,14.71
2019-02-14T13:47:41.852Z,14.91
2019-02-14T13:50:12.123Z,14.96
2019-02-14T13:52:40.812Z,14.93
2019-02-14T13:55:10.686Z,14.80
2019-02-14T13:57:39.349Z,14.72
2019-02-14T14:00:25.853Z,14.69
2019-02-14T14:02:54.382Z,14.55
2019-02-14T14:05:22.989Z,14.53
2019-02-14T14:07:51.584Z,14.54
2019-02-14T14:10:20.184Z,14.56
2019-02-14T14:12:48.900Z,14.53
2019-02-14T14:15:17.567Z,14.40
2019-02-14T14:17:46.152Z,14.29
2019-02-14T14:20:14.693Z,14.32
2019-02-14T14:22:43.260Z,14.35
2019-02-14T14:25:12.538Z,14.56
2019-02-14T14:27:41.010Z,14.65
2019-02-14T14:30:14.408Z,14.71
2019-02-14T14:32:43.075Z,14.85
2019-02-14T14:35:12.177Z,14.93
2019-02-14T14:37:40.769Z,14.92
2019-02-14T14:40:12.256Z,14.85
2019-02-14T14:42:48.264Z,14.90
2019-02-14T14:45:18.462Z,14.91
2019-02-14T14:47:47.025Z,14.53
2019-02-14T14:50:15.639Z,14.45
2019-02-14T14:52:44.363Z,14.42
2019-02-14T14:55:12.941Z,14.49
2019-02-14T14:57:41.462Z,14.56
2019-02-14T15:00:11.126Z,14.63
2019-02-14T15:02:39.730Z,14.79
2019-02-14T15:05:09.016Z,14.91
2019-02-14T15:07:37.634Z,14.80
2019-02-14T15:10:07.229Z,14.85
2019-02-14T15:12:35.732Z,15.03
2019-02-14T15:15:04.763Z,15.19
2019-02-14T15:17:33.435Z,15.29
2019-02-14T15:20:02.046Z,15.36
2019-02-14T15:22:30.648Z,15.43
2019-02-14T15:24:59.210Z,15.45
2019-02-14T15:27:27.796Z,15.46
2019-02-14T15:29:56.347Z,15.46
2019-02-14T15:32:24.947Z,15.50
2019-02-14T15:34:53.484Z,15.47
2019-02-14T15:37:21.938Z,15.42
2019-02-14T15:39:50.620Z,15.32
2019-02-14T15:42:19.185Z,15.19
2019-02-14T15:44:47.771Z,15.08
2019-02-14T15:47:16.315Z,14.98
2019-02-14T15:49:46.870Z,14.81
2019-02-14T15:52:15.072Z,14.67
2019-02-14T15:54:43.566Z,14.56
2019-02-14T15:57:12.067Z,14.44
2019-02-14T15:59:43.492Z,14.34
2019-02-14T16:02:12.374Z,14.18
2019-02-14T16:04:40.979Z,14.03
2019-02-14T16:07:09.544Z,13.92
2019-02-14T16:09:41.032Z,13.79
2019-02-14T16:12:08.683Z,13.64
2019-02-14T16:14:37.279Z,13.45
2019-02-14T16:17:06.746Z,13.29
2019-02-14T16:19:36.562Z,13.16
2019-02-14T16:22:05.593Z,13.05
2019-02-14T16:24:34.191Z,12.87
2019-02-14T16:27:03.325Z,12.70
2019-02-14T16:29:32.173Z,12.50
2019-02-14T16:32:00.621Z,12.29
2019-02-14T16:34:29.265Z,12.13
2019-02-14T16:36:57.865Z,11.99
2019-02-14T16:39:28.534Z,11.83
2019-02-14T16:41:57.121Z,11.69
2019-02-14T16:44:25.664Z,11.54
2019-02-14T16:46:54.257Z,11.40
2019-02-14T16:49:22.918Z,11.22
2019-02-14T16:51:51.562Z,11.10
2019-02-14T16:54:20.080Z,10.91
2019-02-14T16:56:48.557Z,10.82
2019-02-14T16:59:17.161Z,10.68
2019-02-14T17:01:45.918Z,10.56
2019-02-14T17:04:14.479Z,10.50
2019-02-14T17:06:43.134Z,10.37
2019-02-14T17:09:11.783Z,10.19
2019-02-14T17:11:40.450Z,10.01
2019-02-14T17:14:08.891Z,9.85
2019-02-14T17:16:37.344Z,9.76
2019-02-14T17:19:05.984Z,9.59
2019-02-14T17:21:34.530Z,9.51
2019-02-14T17:24:03.115Z,9.42
2019-02-14T17:26:31.826Z,9.33
2019-02-14T17:29:00.392Z,9.24
2019-02-14T17:31:29.004Z,9.11
2019-02-14T17:33:57.580Z,9.00
2019-02-14T17:36:26.188Z,8.86
2019-02-14T17:38:54.682Z,8.76
2019-02-14T17:41:23.223Z,8.68
2019-02-14T17:43:54.558Z,8.58
2019-02-14T17:46:23.100Z,8.45
2019-02-14T17:48:51.737Z,8.33
2019-02-14T17:51:20.327Z,8.27
2019-02-14T17:53:48.761Z,8.20
2019-02-14T17:56:17.390Z,8.05
2019-02-14T17:58:45.893Z,8.05
2019-02-14T18:01:14.789Z,7.95
2019-02-14T18:03:43.304Z,7.84
2019-02-14T18:06:11.852Z,7.76
2019-02-14T18:08:40.413Z,7.70
2019-02-14T18:11:09.048Z,7.60
2019-02-14T18:13:37.612Z,7.52
2019-02-14T18:16:06.185Z,7.45
2019-02-14T18:18:34.867Z,7.45
2019-02-14T18:21:03.498Z,7.42
2019-02-14T18:23:32.026Z,7.36
2019-02-14T18:26:00.608Z,7.31
2019-02-14T18:28:29.183Z,7.16
2019-02-14T18:30:57.762Z,7.11
2019-02-14T18:33:26.403Z,7.06
2019-02-14T18:35:54.999Z,7.01
2019-02-14T18:38:24.069Z,7.01
2019-02-14T18:40:52.664Z,6.97
2019-02-14T18:43:21.228Z,6.88
2019-02-14T18:45:49.784Z,6.85
2019-02-14T18:48:18.414Z,6.74
2019-02-14T18:50:46.967Z,6.68
2019-02-14T18:53:15.489Z,6.57
2019-02-14T18:55:43.998Z,6.49
2019-02-14T18:58:12.620Z,6.52
2019-02-14T19:00:41.260Z,6.46
2019-02-14T19:03:09.881Z,6.41
2019-02-14T19:05:38.452Z,6.33
2019-02-14T19:08:06.937Z,6.25
2019-02-14T19:10:35.417Z,6.19
2019-02-14T19:13:04.101Z,6.18
2019-02-14T19:15:32.776Z,6.14
2019-02-14T19:18:01.415Z,6.10
2019-02-14T19:20:30.010Z,6.01
2019-02-14T19:22:58.634Z,5.92
2019-02-14T19:25:29.650Z,5.79
2019-02-14T19:27:57.571Z,5.76
2019-02-14T19:30:26.207Z,5.78
2019-02-14T19:32:54.832Z,5.83
2019-02-14T19:35:23.577Z,5.72
2019-02-14T19:37:53.179Z,5.68
2019-02-14T19:40:21.855Z,5.58
2019-02-14T19:42:50.330Z,5.51
2019-02-14T19:45:18.914Z,5.46
2019-02-14T19:47:47.616Z,5.37
2019-02-14T19:50:16.190Z,5.30
2019-02-14T19:52:44.750Z,5.32
2019-02-14T19:55:13.346Z,5.25
2019-02-14T19:57:41.851Z,5.17
2019-02-14T20:00:12.499Z,5.16
2019-02-14T20:02:41.088Z,5.14
2019-02-14T20:05:10.306Z,5.06
2019-02-14T20:07:38.921Z,5.05
2019-02-14T20:10:15.624Z,5.05
2019-02-14T20:12:44.185Z,4.98
2019-02-14T20:15:17.959Z,4.90
2019-02-14T20:17:46.605Z,4.93
2019-02-14T20:20:15.225Z,4.92
2019-02-14T20:22:43.877Z,4.87
2019-02-14T20:25:15.439Z,4.83
2019-02-14T20:27:43.961Z,4.83
2019-02-14T20:30:12.557Z,4.84
2019-02-14T20:32:41.122Z,4.84
2019-02-14T20:35:09.900Z,4.83
2019-02-14T20:37:38.523Z,4.76
2019-02-14T20:40:09.577Z,4.63
2019-02-14T20:42:38.144Z,4.49
2019-02-14T20:45:09.978Z,4.39
2019-02-14T20:47:38.616Z,4.39
2019-02-14T20:50:10.133Z,4.29
2019-02-14T20:52:38.702Z,4.18
2019-02-14T20:55:10.237Z,4.18
2019-02-14T20:57:38.921Z,4.26
2019-02-14T21:00:11.848Z,4.21
2019-02-14T21:02:40.443Z,4.09
2019-02-14T21:05:09.101Z,4.07
2019-02-14T21:07:37.679Z,4.11
2019-02-14T21:10:07.755Z,4.12
2019-02-14T21:12:36.403Z,4.27
2019-02-14T21:15:06.116Z,4.22
2019-02-14T21:17:34.716Z,4.20
2019-02-14T21:20:03.517Z,4.21
2019-02-14T21:22:32.125Z,4.20
2019-02-14T21:25:00.715Z,4.03
2019-02-14T21:27:29.584Z,4.03
2019-02-14T21:29:58.106Z,3.98
2019-02-14T21:32:26.816Z,3.95
2019-02-14T21:34:55.460Z,3.86
2019-02-14T21:37:24.162Z,3.83
2019-02-14T21:39:52.901Z,3.89
2019-02-14T21:42:23.186Z,3.83
2019-02-14T21:44:51.781Z,3.81
2019-02-14T21:47:20.344Z,3.83
2019-02-14T21:49:48.915Z,3.86
2019-02-14T21:52:17.433Z,3.81
2019-02-14T21:54:46.064Z,3.74
2019-02-14T21:57:14.784Z,3.66
2019-02-14T21:59:43.426Z,3.71
2019-02-14T22:02:11.997Z,3.72
2019-02-14T22:04:42.122Z,3.80
2019-02-14T22:07:11.556Z,3.76
2019-02-14T22:09:40.285Z,3.68
2019-02-14T22:12:09.914Z,3.64
2019-02-14T22:14:38.582Z,3.59
2019-02-14T22:17:07.087Z,3.53
2019-02-14T22:19:35.773Z,3.51
2019-02-14T22:22:04.427Z,3.49
2019-02-14T22:24:33.001Z,3.45
2019-02-14T22:27:01.554Z,3.46
2019-02-14T22:29:30.239Z,3.47
2019-02-14T22:31:58.876Z,3.45
2019-02-14T22:34:27.403Z,3.48
2019-02-14T22:36:55.942Z,3.40
2019-02-14T22:39:26.365Z,3.28
2019-02-14T22:41:54.830Z,3.25
2019-02-14T22:44:24.075Z,3.27
2019-02-14T22:46:52.642Z,3.30
2019-02-14T22:49:21.175Z,3.30
2019-02-14T22:51:49.611Z,3.29
2019-02-14T22:54:18.202Z,3.21
2019-02-14T22:56:47.111Z,3.17
2019-02-14T22:59:15.747Z,3.19
2019-02-14T23:01:46.437Z,3.25
2019-02-14T23:04:15.041Z,3.24
2019-02-14T23:06:43.498Z,3.31
2019-02-14T23:09:12.107Z,3.33
2019-02-14T23:11:40.654Z,3.34
2019-02-14T23:14:09.252Z,3.30
2019-02-14T23:16:37.919Z,3.24
2019-02-14T23:19:06.538Z,3.23
2019-02-14T23:21:36.008Z,3.24
2019-02-14T23:24:04.525Z,3.31
2019-02-14T23:26:33.186Z,3.25
2019-02-14T23:29:01.736Z,3.15
2019-02-14T23:31:30.290Z,3.16
2019-02-14T23:33:58.771Z,3.19
2019-02-14T23:36:27.366Z,3.16
2019-02-14T23:38:56.245Z,3.07
2019-02-14T23:41:24.873Z,3.03
2019-02-14T23:43:53.413Z,3.00
2019-02-14T23:46:21.914Z,2.98
2019-02-14T23:48:50.441Z,2.92
2019-02-14T23:51:18.984Z,3.02
2019-02-14T23:53:47.534Z,3.01
2019-02-14T23:56:16.189Z,3.14
2019-02-14T23:58:44.823Z,3.22
